createdAt,value
2023-02-07T00:00:53.611Z,985.49
2023-02-07T00:01:53.768Z,985.51
2023-02-07T00:02:53.627Z,985.51
2023-02-07T00:03:53.760Z,985.52
2023-02-07T00:04:53.599Z,985.51
2023-02-07T00:05:53.769Z,985.53
2023-02-07T00:06:53.812Z,985.50
2023-02-07T00:07:53.548Z,985.54
2023-02-07T00:08:53.788Z,985.50
2023-02-07T00:09:53.530Z,985.55
2023-02-07T00:10:53.596Z,985.52
2023-02-07T00:11:53.654Z,985.59
2023-02-07T00:12:53.460Z,985.53
2023-02-07T00:13:53.677Z,985.55
2023-02-07T00:14:53.429Z,985.61
2023-02-07T00:15:53.647Z,985.62
2023-02-07T00:16:53.455Z,985.67
2023-02-07T00:17:53.712Z,985.65
2023-02-07T00:18:53.394Z,985.62
2023-02-07T00:19:53.577Z,985.60
2023-02-07T00:20:53.410Z,985.62
2023-02-07T00:21:53.532Z,985.61
2023-02-07T00:22:53.329Z,985.59
2023-02-07T00:23:53.488Z,985.59
2023-02-07T00:24:53.306Z,985.61
2023-02-07T00:25:53.595Z,985.62
2023-02-07T00:26:53.324Z,985.60
2023-02-07T00:27:53.562Z,985.63
2023-02-07T00:28:53.294Z,985.64
2023-02-07T00:29:53.570Z,985.63
2023-02-07T00:30:53.317Z,985.60
2023-02-07T00:31:53.336Z,985.62
2023-02-07T00:32:53.263Z,985.59
2023-02-07T00:33:53.393Z,985.61
2023-02-07T00:34:53.233Z,985.63
2023-02-07T00:35:53.433Z,985.56
2023-02-07T00:36:53.197Z,985.52
2023-02-07T00:37:53.364Z,985.48
2023-02-07T00:38:53.150Z,985.49
2023-02-07T00:39:53.336Z,985.46
2023-02-07T00:40:53.147Z,985.41
2023-02-07T00:41:53.299Z,985.38
2023-02-07T00:42:53.289Z,985.31
2023-02-07T00:43:53.100Z,985.33
2023-02-07T00:44:53.221Z,985.30
2023-02-07T00:45:53.061Z,985.28
2023-02-07T00:46:53.239Z,985.26
2023-02-07T00:47:53.028Z,985.22
2023-02-07T00:48:53.250Z,985.23
2023-02-07T00:49:53.021Z,985.20
2023-02-07T00:50:53.275Z,985.25
2023-02-07T00:51:52.977Z,985.18
2023-02-07T00:52:53.175Z,985.20
2023-02-07T00:53:53.000Z,985.21
2023-02-07T00:54:53.088Z,985.23
2023-02-07T00:55:52.945Z,985.22
2023-02-07T00:56:53.186Z,985.24
2023-02-07T00:57:52.899Z,985.30
2023-02-07T00:58:53.112Z,985.30
2023-02-07T00:59:52.888Z,985.32
2023-02-07T01:00:53.135Z,985.34
2023-02-07T01:01:52.860Z,985.31
2023-02-07T01:02:53.042Z,985.27
2023-02-07T01:03:53.035Z,985.27
2023-02-07T01:04:52.935Z,985.25
2023-02-07T01:05:52.906Z,985.21
2023-02-07T01:06:52.826Z,985.22
2023-02-07T01:07:53.026Z,985.25
2023-02-07T01:08:52.795Z,985.28
2023-02-07T01:09:52.986Z,985.31
2023-02-07T01:10:52.808Z,985.32
2023-02-07T01:11:52.895Z,985.30
2023-02-07T01:12:52.751Z,985.33
2023-02-07T01:13:52.924Z,985.34
2023-02-07T01:14:52.730Z,985.29
2023-02-07T01:15:52.772Z,985.28
2023-02-07T01:16:52.720Z,985.27
2023-02-07T01:17:52.731Z,985.35
2023-02-07T01:18:52.677Z,985.37
2023-02-07T01:19:52.785Z,985.38
2023-02-07T01:20:52.655Z,985.41
2023-02-07T01:21:52.797Z,985.39
2023-02-07T01:22:52.660Z,985.35
2023-02-07T01:23:52.815Z,985.33
2023-02-07T01:24:52.631Z,985.28
2023-02-07T01:25:52.797Z,985.27
2023-02-07T01:26:52.593Z,985.27
2023-02-07T01:27:52.629Z,985.18
2023-02-07T01:28:52.607Z,985.16
2023-02-07T01:29:52.619Z,985.16
2023-02-07T01:30:52.618Z,985.22
2023-02-07T01:31:52.715Z,985.22
2023-02-07T01:32:52.533Z,985.26
2023-02-07T01:33:52.558Z,985.28
2023-02-07T01:34:52.607Z,985.30
2023-02-07T01:35:52.453Z,985.29
2023-02-07T01:36:52.578Z,985.29
2023-02-07T01:37:52.418Z,985.34
2023-02-07T01:38:52.644Z,985.36
2023-02-07T01:39:52.414Z,985.36
2023-02-07T01:40:52.601Z,985.38
2023-02-07T01:41:52.356Z,985.39
2023-02-07T01:42:52.461Z,985.37
2023-02-07T01:43:52.338Z,985.37
2023-02-07T01:44:52.428Z,985.41
2023-02-07T01:45:52.400Z,985.42
2023-02-07T01:46:52.552Z,985.37
2023-02-07T01:47:52.299Z,985.38
2023-02-07T01:48:52.413Z,985.36
2023-02-07T01:49:52.291Z,985.34
2023-02-07T01:50:52.410Z,985.32
2023-02-07T01:51:52.243Z,985.30
2023-02-07T01:52:52.381Z,985.26
2023-02-07T01:53:52.231Z,985.24
2023-02-07T01:54:52.338Z,985.17
2023-02-07T01:55:52.307Z,985.12
2023-02-07T01:56:52.219Z,985.10
2023-02-07T01:57:52.342Z,985.15
2023-02-07T01:58:52.186Z,985.21
2023-02-07T01:59:52.272Z,985.22
2023-02-07T02:00:52.261Z,985.28
2023-02-07T02:01:52.135Z,985.33
2023-02-07T02:02:52.304Z,985.36
2023-02-07T02:03:52.096Z,985.35
2023-02-07T02:04:52.251Z,985.39
2023-02-07T02:05:52.128Z,985.37
2023-02-07T02:06:52.160Z,985.41
2023-02-07T02:07:52.049Z,985.37
2023-02-07T02:08:52.187Z,985.36
2023-02-07T02:09:52.030Z,985.39
2023-02-07T02:10:52.152Z,985.39
2023-02-07T02:11:52.126Z,985.41
2023-02-07T02:12:52.209Z,985.40
2023-02-07T02:13:51.972Z,985.42
2023-02-07T02:14:52.019Z,985.44
2023-02-07T02:15:52.013Z,985.45
2023-02-07T02:16:52.081Z,985.53
2023-02-07T02:17:51.953Z,985.53
2023-02-07T02:18:52.059Z,985.60
2023-02-07T02:19:51.912Z,985.60
2023-02-07T02:20:52.066Z,985.58
2023-02-07T02:21:52.110Z,985.57
2023-02-07T02:22:51.908Z,985.60
2023-02-07T02:23:52.060Z,985.60
2023-02-07T02:24:51.879Z,985.58
2023-02-07T02:25:51.875Z,985.59
2023-02-07T02:26:51.953Z,985.60
2023-02-07T02:27:51.828Z,985.58
2023-02-07T02:28:51.920Z,985.59
2023-02-07T02:29:51.804Z,985.56
2023-02-07T02:30:51.884Z,985.53
2023-02-07T02:31:51.772Z,985.55
2023-02-07T02:32:52.022Z,985.52
2023-02-07T02:33:51.776Z,985.55
2023-02-07T02:34:51.822Z,985.55
2023-02-07T02:35:51.717Z,985.54
2023-02-07T02:36:51.778Z,985.56
2023-02-07T02:37:51.724Z,985.54
2023-02-07T02:38:51.778Z,985.59
2023-02-07T02:39:51.714Z,985.58
2023-02-07T02:40:51.790Z,985.59
2023-02-07T02:41:51.663Z,985.59
2023-02-07T02:42:51.878Z,985.60
2023-02-07T02:43:51.658Z,985.59
2023-02-07T02:44:51.723Z,985.64
2023-02-07T02:45:51.614Z,985.66
2023-02-07T02:46:51.735Z,985.71
2023-02-07T02:47:51.760Z,985.74
2023-02-07T02:48:51.618Z,985.78
2023-02-07T02:49:51.647Z,985.79
2023-02-07T02:50:51.555Z,985.81
2023-02-07T02:51:51.659Z,985.85
2023-02-07T02:52:51.756Z,985.87
2023-02-07T02:53:51.536Z,985.84
2023-02-07T02:54:51.610Z,985.83
2023-02-07T02:55:51.493Z,985.79
2023-02-07T02:56:51.594Z,985.77
2023-02-07T02:57:51.454Z,985.75
2023-02-07T02:58:51.679Z,985.73
2023-02-07T02:59:51.420Z,985.75
2023-02-07T03:00:51.624Z,985.77
2023-02-07T03:01:51.441Z,985.78
2023-02-07T03:02:51.658Z,985.80
2023-02-07T03:03:51.402Z,985.83
2023-02-07T03:04:51.553Z,985.80
2023-02-07T03:05:51.366Z,985.80
2023-02-07T03:06:51.516Z,985.79
2023-02-07T03:07:51.332Z,985.80
2023-02-07T03:08:51.481Z,985.79
2023-02-07T03:09:51.304Z,985.78
2023-02-07T03:10:51.448Z,985.79
2023-02-07T03:11:51.304Z,985.77
2023-02-07T03:12:51.413Z,985.73
2023-02-07T03:13:51.344Z,985.72
2023-02-07T03:14:51.286Z,985.69
2023-02-07T03:15:51.385Z,985.75
2023-02-07T03:16:51.297Z,985.77
2023-02-07T03:17:51.324Z,985.75
2023-02-07T03:18:51.350Z,985.70
2023-02-07T03:19:51.194Z,985.72
2023-02-07T03:20:51.407Z,985.73
2023-02-07T03:21:51.170Z,985.80
2023-02-07T03:22:51.282Z,985.79
2023-02-07T03:23:51.148Z,985.81
2023-02-07T03:24:51.279Z,985.77
2023-02-07T03:25:51.116Z,985.76
2023-02-07T03:26:51.253Z,985.71
2023-02-07T03:27:51.148Z,985.68
2023-02-07T03:28:51.237Z,985.60
2023-02-07T03:29:51.076Z,985.66
2023-02-07T03:30:51.214Z,985.68
2023-02-07T03:31:51.053Z,985.65
2023-02-07T03:32:51.163Z,985.65
2023-02-07T03:33:51.022Z,985.64
2023-02-07T03:34:51.142Z,985.67
2023-02-07T03:35:51.008Z,985.66
2023-02-07T03:36:51.247Z,985.56
2023-02-07T03:37:50.995Z,985.59
2023-02-07T03:38:51.067Z,985.64
2023-02-07T03:39:51.119Z,985.70
2023-02-07T03:40:50.949Z,985.66
2023-02-07T03:41:51.090Z,985.64
2023-02-07T03:42:50.976Z,985.72
2023-02-07T03:43:50.992Z,985.71
2023-02-07T03:44:51.008Z,985.75
2023-02-07T03:45:50.884Z,985.76
2023-02-07T03:46:50.977Z,985.81
2023-02-07T03:47:50.890Z,985.80
2023-02-07T03:48:50.992Z,985.79
2023-02-07T03:49:50.819Z,985.69
2023-02-07T03:50:50.950Z,985.75
2023-02-07T03:51:50.805Z,985.74
2023-02-07T03:52:50.972Z,985.74
2023-02-07T03:53:50.794Z,985.72
2023-02-07T03:54:50.988Z,985.73
2023-02-07T03:55:50.745Z,985.73
2023-02-07T03:56:51.001Z,985.77
2023-02-07T03:57:50.726Z,985.79
2023-02-07T03:58:50.815Z,985.78
2023-02-07T03:59:50.747Z,985.80
2023-02-07T04:00:50.898Z,985.78
2023-02-07T04:01:50.722Z,985.82
2023-02-07T04:02:50.866Z,985.79
2023-02-07T04:03:50.656Z,985.73
2023-02-07T04:04:50.873Z,985.72
2023-02-07T04:05:50.786Z,985.69
2023-02-07T04:06:50.637Z,985.70
2023-02-07T04:07:50.752Z,985.72
2023-02-07T04:08:50.607Z,985.75
2023-02-07T04:09:50.667Z,985.74
2023-02-07T04:10:50.746Z,985.75
2023-02-07T04:11:50.557Z,985.73
2023-02-07T04:12:50.724Z,985.76
2023-02-07T04:13:50.532Z,985.78
2023-02-07T04:14:50.722Z,985.76
2023-02-07T04:15:50.525Z,985.75
2023-02-07T04:16:50.688Z,985.78
2023-02-07T04:17:50.489Z,985.78
2023-02-07T04:18:50.643Z,985.73
2023-02-07T04:19:50.469Z,985.72
2023-02-07T04:20:50.549Z,985.75
2023-02-07T04:21:50.462Z,985.74
2023-02-07T04:22:50.585Z,985.73
2023-02-07T04:23:50.393Z,985.72
2023-02-07T04:24:50.580Z,985.72
2023-02-07T04:25:50.397Z,985.73
2023-02-07T04:26:50.658Z,985.73
2023-02-07T04:27:50.397Z,985.72
2023-02-07T04:28:50.513Z,985.73
2023-02-07T04:29:50.327Z,985.75
2023-02-07T04:30:50.594Z,985.75
2023-02-07T04:31:50.509Z,985.73
2023-02-07T04:32:50.348Z,985.71
2023-02-07T04:33:50.409Z,985.70
2023-02-07T04:34:50.297Z,985.67
2023-02-07T04:35:50.334Z,985.63
2023-02-07T04:36:50.272Z,985.63
2023-02-07T04:37:50.407Z,985.62
2023-02-07T04:38:50.256Z,985.61
2023-02-07T04:39:50.375Z,985.59
2023-02-07T04:40:50.261Z,985.60
2023-02-07T04:41:50.407Z,985.56
2023-02-07T04:42:50.172Z,985.60
2023-02-07T04:43:50.411Z,985.61
2023-02-07T04:44:50.159Z,985.70
2023-02-07T04:45:50.306Z,985.67
2023-02-07T04:46:50.141Z,985.67
2023-02-07T04:47:50.233Z,985.68
2023-02-07T04:48:50.092Z,985.66
2023-02-07T04:49:50.144Z,985.68
2023-02-07T04:50:50.117Z,985.68
2023-02-07T04:51:50.150Z,985.66
2023-02-07T04:52:50.148Z,985.71
2023-02-07T04:53:50.058Z,985.71
2023-02-07T04:54:50.132Z,985.74
2023-02-07T04:55:50.053Z,985.73
2023-02-07T04:56:50.070Z,985.75
2023-02-07T04:57:50.102Z,985.76
2023-02-07T04:58:50.001Z,985.72
2023-02-07T04:59:50.226Z,985.78
2023-02-07T05:00:50.049Z,985.79
2023-02-07T05:01:50.037Z,985.84
2023-02-07T05:02:49.923Z,985.82
2023-02-07T05:03:50.087Z,985.85
2023-02-07T05:04:50.062Z,985.88
2023-02-07T05:05:50.041Z,985.94
2023-02-07T05:06:49.884Z,985.95
2023-02-07T05:07:50.078Z,985.87
2023-02-07T05:08:49.868Z,985.94
2023-02-07T05:09:49.992Z,985.96
2023-02-07T05:10:49.855Z,985.97
2023-02-07T05:11:50.015Z,985.98
2023-02-07T05:12:49.802Z,985.95
2023-02-07T05:13:49.914Z,985.93
2023-02-07T05:14:49.794Z,985.91
2023-02-07T05:15:50.041Z,985.87
2023-02-07T05:16:50.092Z,985.84
2023-02-07T05:17:49.861Z,985.80
2023-02-07T05:18:49.867Z,985.76
2023-02-07T05:19:49.759Z,985.79
2023-02-07T05:20:52.068Z,985.81
2023-02-07T05:21:49.756Z,985.84
2023-02-07T05:22:49.742Z,985.81
2023-02-07T05:23:49.782Z,985.79
2023-02-07T05:24:49.672Z,985.85
2023-02-07T05:25:49.780Z,985.86
2023-02-07T05:26:49.660Z,985.85
2023-02-07T05:27:49.815Z,985.81
2023-02-07T05:28:49.609Z,985.82
2023-02-07T05:29:49.810Z,985.77
2023-02-07T05:30:49.708Z,985.81
2023-02-07T05:31:50.050Z,985.79
2023-02-07T05:32:49.612Z,985.80
2023-02-07T05:33:49.641Z,985.84
2023-02-07T05:34:49.539Z,985.85
2023-02-07T05:35:49.668Z,985.87
2023-02-07T05:36:49.524Z,985.81
2023-02-07T05:37:49.728Z,985.85
2023-02-07T05:38:49.497Z,985.76
2023-02-07T05:39:49.612Z,985.73
2023-02-07T05:40:49.476Z,985.75
2023-02-07T05:41:49.593Z,985.71
2023-02-07T05:42:49.524Z,985.75
2023-02-07T05:43:49.575Z,985.72
2023-02-07T05:44:49.522Z,985.81
2023-02-07T05:45:49.497Z,985.84
2023-02-07T05:46:51.238Z,985.86
2023-02-07T05:47:49.469Z,985.86
2023-02-07T05:48:49.552Z,985.87
2023-02-07T05:49:49.381Z,985.90
2023-02-07T05:50:49.457Z,985.89
2023-02-07T05:51:49.349Z,985.86
2023-02-07T05:52:49.466Z,985.93
2023-02-07T05:53:49.350Z,985.96
2023-02-07T05:54:49.504Z,985.95
2023-02-07T05:55:49.306Z,985.94
2023-02-07T05:56:49.465Z,985.91
2023-02-07T05:57:49.274Z,985.94
2023-02-07T05:58:49.401Z,985.95
2023-02-07T05:59:49.285Z,985.98
2023-02-07T06:00:49.333Z,985.91
2023-02-07T06:01:49.240Z,985.92
2023-02-07T06:02:49.395Z,985.88
2023-02-07T06:03:49.247Z,985.88
2023-02-07T06:04:49.261Z,985.85
2023-02-07T06:05:49.262Z,985.87
2023-02-07T06:06:49.921Z,985.85
2023-02-07T06:07:49.314Z,985.87
2023-02-07T06:08:49.128Z,985.90
2023-02-07T06:09:49.357Z,985.92
2023-02-07T06:10:49.291Z,985.96
2023-02-07T06:11:49.115Z,986.00
2023-02-07T06:12:49.273Z,985.93
2023-02-07T06:13:49.111Z,985.87
2023-02-07T06:14:49.291Z,985.86
2023-02-07T06:15:49.179Z,985.88
2023-02-07T06:16:49.101Z,985.87
2023-02-07T06:17:49.058Z,985.87
2023-02-07T06:18:49.137Z,985.87
2023-02-07T06:19:49.011Z,985.88
2023-02-07T06:20:49.173Z,985.87
2023-02-07T06:21:49.043Z,985.87
2023-02-07T06:22:49.210Z,985.83
2023-02-07T06:23:48.966Z,985.77
2023-02-07T06:24:49.199Z,985.74
2023-02-07T06:25:48.976Z,985.77
2023-02-07T06:26:48.949Z,985.72
2023-02-07T06:27:48.950Z,985.70
2023-02-07T06:28:49.000Z,985.68
2023-02-07T06:29:48.896Z,985.69
2023-02-07T06:30:49.122Z,985.71
2023-02-07T06:31:49.153Z,985.71
2023-02-07T06:32:48.846Z,985.67
2023-02-07T06:33:48.968Z,985.66
2023-02-07T06:34:48.798Z,985.65
2023-02-07T06:35:48.990Z,985.66
2023-02-07T06:36:48.927Z,985.63
2023-02-07T06:37:48.803Z,985.70
2023-02-07T06:38:48.955Z,985.69
2023-02-07T06:39:48.843Z,985.64
2023-02-07T06:40:48.884Z,985.66
2023-02-07T06:41:48.785Z,985.63
2023-02-07T06:42:48.875Z,985.61
2023-02-07T06:43:48.756Z,985.59
2023-02-07T06:44:48.936Z,985.64
2023-02-07T06:45:48.732Z,985.64
2023-02-07T06:46:48.890Z,985.71
2023-02-07T06:47:48.728Z,985.66
2023-02-07T06:48:48.654Z,985.71
2023-02-07T06:49:48.654Z,985.76
2023-02-07T06:50:48.748Z,985.77
2023-02-07T06:51:48.712Z,985.78
2023-02-07T06:52:48.761Z,985.80
2023-02-07T06:53:48.697Z,985.81
2023-02-07T06:54:48.709Z,985.85
2023-02-07T06:55:48.585Z,985.87
2023-02-07T06:56:48.659Z,985.89
2023-02-07T06:57:48.670Z,985.88
2023-02-07T06:58:48.592Z,985.91
2023-02-07T06:59:48.649Z,985.98
2023-02-07T07:00:48.510Z,985.94
2023-02-07T07:01:49.687Z,985.94
2023-02-07T07:02:48.775Z,985.94
2023-02-07T07:03:48.530Z,985.96
2023-02-07T07:04:48.673Z,985.98
2023-02-07T07:05:48.543Z,985.98
2023-02-07T07:06:48.605Z,985.99
2023-02-07T07:07:54.649Z,986.05
2023-02-07T07:08:48.514Z,986.05
2023-02-07T07:09:48.460Z,986.12
2023-02-07T07:10:48.513Z,986.08
2023-02-07T07:11:48.383Z,986.11
2023-02-07T07:12:48.565Z,986.12
2023-02-07T07:13:48.353Z,986.12
2023-02-07T07:14:48.377Z,986.13
2023-02-07T07:15:48.398Z,986.14
2023-02-07T07:16:48.340Z,986.15
2023-02-07T07:17:48.306Z,986.17
2023-02-07T07:18:48.372Z,986.14
2023-02-07T07:19:48.319Z,986.16
2023-02-07T07:20:48.269Z,986.12
2023-02-07T07:21:48.288Z,986.10
2023-02-07T07:22:48.282Z,986.11
2023-02-07T07:23:48.245Z,986.03
2023-02-07T07:24:48.349Z,986.11
2023-02-07T07:25:48.216Z,986.10
2023-02-07T07:26:50.145Z,986.08
2023-02-07T07:27:48.225Z,986.07
2023-02-07T07:28:48.219Z,986.10
2023-02-07T07:29:48.234Z,986.12
2023-02-07T07:30:48.313Z,986.11
2023-02-07T07:31:48.191Z,986.13
2023-02-07T07:32:48.174Z,986.14
2023-02-07T07:33:48.215Z,986.14
2023-02-07T07:34:48.109Z,986.12
2023-02-07T07:35:48.196Z,986.15
2023-02-07T07:36:48.105Z,986.18
2023-02-07T07:37:48.188Z,986.19
2023-02-07T07:38:48.189Z,986.23
2023-02-07T07:39:48.205Z,986.20
2023-02-07T07:40:48.005Z,986.22
2023-02-07T07:41:48.214Z,986.20
2023-02-07T07:42:47.985Z,986.20
2023-02-07T07:43:48.115Z,986.17
2023-02-07T07:44:47.967Z,986.21
2023-02-07T07:45:48.037Z,986.22
2023-02-07T07:46:47.953Z,986.16
2023-02-07T07:47:48.038Z,986.20
2023-02-07T07:48:47.915Z,986.17
2023-02-07T07:49:48.254Z,986.20
2023-02-07T07:50:47.889Z,986.25
2023-02-07T07:51:48.023Z,986.27
2023-02-07T07:52:47.897Z,986.28
2023-02-07T07:53:47.953Z,986.24
2023-02-07T07:54:47.865Z,986.22
2023-02-07T07:55:47.843Z,986.18
2023-02-07T07:56:47.883Z,986.21
2023-02-07T07:57:47.871Z,986.19
2023-02-07T07:58:47.915Z,986.19
2023-02-07T07:59:47.839Z,986.20
2023-02-07T08:00:47.811Z,986.20
2023-02-07T08:01:47.844Z,986.15
2023-02-07T08:02:47.788Z,986.15
2023-02-07T08:03:47.989Z,986.16
2023-02-07T08:04:47.948Z,986.11
2023-02-07T08:05:47.767Z,986.11
2023-02-07T08:06:47.746Z,986.13
2023-02-07T08:07:47.723Z,986.07
2023-02-07T08:08:47.709Z,986.12
2023-02-07T08:09:47.699Z,986.15
2023-02-07T08:10:47.670Z,986.15
2023-02-07T08:11:47.674Z,986.16
2023-02-07T08:12:47.669Z,986.15
2023-02-07T08:13:47.663Z,986.12
2023-02-07T08:14:47.699Z,986.09
2023-02-07T08:15:47.654Z,986.09
2023-02-07T08:16:47.720Z,986.11
2023-02-07T08:17:47.613Z,986.09
2023-02-07T08:18:47.724Z,986.04
2023-02-07T08:19:47.720Z,986.10
2023-02-07T08:20:47.773Z,986.05
2023-02-07T08:21:47.573Z,986.05
2023-02-07T08:22:47.560Z,986.09
2023-02-07T08:23:47.530Z,986.09
2023-02-07T08:24:47.577Z,986.12
2023-02-07T08:25:47.550Z,986.09
2023-02-07T08:26:47.499Z,986.08
2023-02-07T08:27:47.565Z,986.18
2023-02-07T08:28:47.536Z,986.13
2023-02-07T08:29:47.478Z,986.16
2023-02-07T08:30:47.791Z,986.24
2023-02-07T08:31:47.540Z,986.24
2023-02-07T08:32:47.461Z,986.25
2023-02-07T08:33:47.428Z,986.25
2023-02-07T08:34:47.428Z,986.30
2023-02-07T08:35:47.479Z,986.29
2023-02-07T08:36:47.422Z,986.32
2023-02-07T08:37:47.533Z,986.34
2023-02-07T08:38:47.365Z,986.42
2023-02-07T08:39:47.496Z,986.38
2023-02-07T08:40:47.360Z,986.44
2023-02-07T08:41:47.348Z,986.44
2023-02-07T08:42:47.272Z,986.47
2023-02-07T08:43:47.340Z,986.49
2023-02-07T08:44:47.254Z,986.51
2023-02-07T08:45:47.733Z,986.56
2023-02-07T08:46:47.277Z,986.57
2023-02-07T08:47:47.416Z,986.58
2023-02-07T08:48:47.239Z,986.64
2023-02-07T08:49:47.231Z,986.60
2023-02-07T08:50:47.187Z,986.59
2023-02-07T08:51:47.246Z,986.63
2023-02-07T08:52:47.191Z,986.69
2023-02-07T08:53:47.281Z,986.70
2023-02-07T08:54:47.108Z,986.71
2023-02-07T08:55:47.181Z,986.72
2023-02-07T08:56:47.123Z,986.75
2023-02-07T08:57:47.194Z,986.75
2023-02-07T08:58:47.099Z,986.73
2023-02-07T08:59:47.199Z,986.74
2023-02-07T09:00:47.168Z,986.73
2023-02-07T09:01:47.222Z,986.69
2023-02-07T09:02:47.064Z,986.69
2023-02-07T09:03:47.168Z,986.64
2023-02-07T09:04:47.068Z,986.70
2023-02-07T09:05:47.159Z,986.66
2023-02-07T09:06:47.071Z,986.64
2023-02-07T09:07:46.974Z,986.70
2023-02-07T09:08:47.187Z,986.63
2023-02-07T09:09:47.047Z,986.65
2023-02-07T09:10:47.629Z,986.67
2023-02-07T09:11:46.975Z,986.66
2023-02-07T09:12:47.089Z,986.72
2023-02-07T09:13:46.922Z,986.69
2023-02-07T09:14:47.108Z,986.73
2023-02-07T09:15:46.854Z,986.73
2023-02-07T09:16:47.038Z,986.75
2023-02-07T09:17:46.858Z,986.76
2023-02-07T09:18:47.020Z,986.75
2023-02-07T09:19:46.870Z,986.80
2023-02-07T09:20:46.954Z,986.77
2023-02-07T09:21:46.789Z,986.79
2023-02-07T09:22:47.075Z,986.78
2023-02-07T09:23:46.784Z,986.71
2023-02-07T09:24:46.955Z,986.71
2023-02-07T09:25:46.781Z,986.71
2023-02-07T09:26:46.945Z,986.67
2023-02-07T09:27:46.902Z,986.62
2023-02-07T09:28:46.739Z,986.58
2023-02-07T09:29:46.895Z,986.55
2023-02-07T09:30:46.931Z,986.50
2023-02-07T09:31:47.131Z,986.54
2023-02-07T09:32:47.008Z,986.49
2023-02-07T09:33:46.634Z,986.50
2023-02-07T09:34:46.745Z,986.48
2023-02-07T09:35:46.665Z,986.48
2023-02-07T09:36:46.874Z,986.47
2023-02-07T09:37:49.676Z,986.51
2023-02-07T09:38:46.623Z,986.50
2023-02-07T09:39:46.673Z,986.47
2023-02-07T09:40:46.613Z,986.45
2023-02-07T09:41:46.718Z,986.43
2023-02-07T09:42:46.735Z,986.43
2023-02-07T09:43:46.931Z,986.42
2023-02-07T09:44:46.797Z,986.39
2023-02-07T09:45:46.728Z,986.44
2023-02-07T09:46:46.517Z,986.43
2023-02-07T09:47:46.745Z,986.43
2023-02-07T09:48:46.493Z,986.51
2023-02-07T09:49:46.616Z,986.50
2023-02-07T09:50:46.467Z,986.57
2023-02-07T09:51:46.627Z,986.61
2023-02-07T09:52:46.499Z,986.53
2023-02-07T09:53:46.543Z,986.61
2023-02-07T09:54:46.390Z,986.56
2023-02-07T09:55:46.468Z,986.53
2023-02-07T09:56:46.387Z,986.57
2023-02-07T09:57:46.569Z,986.63
2023-02-07T09:58:46.651Z,986.63
2023-02-07T09:59:46.435Z,986.62
2023-02-07T10:00:46.408Z,986.70
2023-02-07T10:01:46.298Z,986.73
2023-02-07T10:02:46.553Z,986.73
2023-02-07T10:03:46.455Z,986.81
2023-02-07T10:04:46.255Z,986.78
2023-02-07T10:05:46.422Z,986.80
2023-02-07T10:06:46.289Z,986.80
2023-02-07T10:07:46.477Z,986.85
2023-02-07T10:08:46.587Z,986.86
2023-02-07T10:09:46.225Z,986.87
2023-02-07T10:10:46.381Z,986.81
2023-02-07T10:11:46.207Z,986.86
2023-02-07T10:12:46.409Z,986.90
2023-02-07T10:13:46.192Z,986.90
2023-02-07T10:14:46.423Z,986.86
2023-02-07T10:15:46.195Z,986.92
2023-02-07T10:16:46.411Z,986.90
2023-02-07T10:17:46.107Z,986.88
2023-02-07T10:18:46.221Z,986.84
2023-02-07T10:19:46.147Z,986.84
2023-02-07T10:20:46.295Z,986.78
2023-02-07T10:21:46.087Z,986.78
2023-02-07T10:22:46.585Z,986.78
2023-02-07T10:23:46.077Z,986.80
2023-02-07T10:24:46.335Z,986.79
2023-02-07T10:25:46.042Z,986.82
2023-02-07T10:26:46.315Z,986.82
2023-02-07T10:27:45.972Z,986.80
2023-02-07T10:28:46.082Z,986.76
2023-02-07T10:29:45.966Z,986.79
2023-02-07T10:30:46.262Z,986.75
2023-02-07T10:31:45.921Z,986.81
2023-02-07T10:32:46.094Z,986.82
2023-02-07T10:33:45.875Z,986.84
2023-02-07T10:34:46.121Z,986.86
2023-02-07T10:35:45.905Z,986.83
2023-02-07T10:36:46.174Z,986.78
2023-02-07T10:37:45.825Z,986.80
2023-02-07T10:38:46.799Z,986.76
2023-02-07T10:39:45.953Z,986.71
2023-02-07T10:40:45.862Z,986.71
2023-02-07T10:41:45.969Z,986.68
2023-02-07T10:42:45.810Z,986.66
2023-02-07T10:43:45.975Z,986.69
2023-02-07T10:44:45.756Z,986.69
2023-02-07T10:45:48.072Z,986.66
2023-02-07T10:46:46.031Z,986.61
2023-02-07T10:47:46.051Z,986.62
2023-02-07T10:48:47.407Z,986.64
2023-02-07T10:49:45.874Z,986.65
2023-02-07T10:50:46.199Z,986.65
2023-02-07T10:51:45.919Z,986.67
2023-02-07T10:52:45.723Z,986.70
2023-02-07T10:53:54.639Z,986.68
2023-02-07T10:54:45.645Z,986.68
2023-02-07T10:55:45.736Z,986.68
2023-02-07T10:56:45.635Z,986.61
2023-02-07T10:57:51.018Z,986.62
2023-02-07T10:58:45.594Z,986.65
2023-02-07T10:59:45.857Z,986.62
2023-02-07T11:00:45.600Z,986.61
2023-02-07T11:01:45.648Z,986.60
2023-02-07T11:02:45.812Z,986.61
2023-02-07T11:03:45.540Z,986.62
2023-02-07T11:04:45.752Z,986.58
2023-02-07T11:05:45.729Z,986.60
2023-02-07T11:06:45.499Z,986.59
2023-02-07T11:07:47.985Z,986.57
2023-02-07T11:08:45.566Z,986.58
2023-02-07T11:09:45.455Z,986.57
2023-02-07T11:10:45.579Z,986.58
2023-02-07T11:11:45.407Z,986.60
2023-02-07T11:12:45.648Z,986.64
2023-02-07T11:13:45.410Z,986.68
2023-02-07T11:14:53.024Z,986.68
2023-02-07T11:15:45.468Z,986.69
2023-02-07T11:16:45.670Z,986.70
2023-02-07T11:17:56.278Z,986.71
2023-02-07T11:18:45.959Z,986.71
2023-02-07T11:19:45.441Z,986.70
2023-02-07T11:20:45.336Z,986.69
2023-02-07T11:21:45.519Z,986.66
2023-02-07T11:22:45.317Z,986.64
2023-02-07T11:23:45.527Z,986.65
2023-02-07T11:24:45.282Z,986.69
2023-02-07T11:25:45.332Z,986.65
2023-02-07T11:26:45.246Z,986.64
2023-02-07T11:27:45.248Z,986.69
2023-02-07T11:28:45.218Z,986.70
2023-02-07T11:29:45.310Z,986.73
2023-02-07T11:30:45.324Z,986.74
2023-02-07T11:31:45.446Z,986.73
2023-02-07T11:32:45.195Z,986.73
2023-02-07T11:33:45.190Z,986.66
2023-02-07T11:34:45.191Z,986.65
2023-02-07T11:35:45.238Z,986.67
2023-02-07T11:36:45.215Z,986.67
2023-02-07T11:37:45.121Z,986.65
2023-02-07T11:38:45.237Z,986.61
2023-02-07T11:39:45.083Z,986.63
2023-02-07T11:40:45.162Z,986.67
2023-02-07T11:41:45.065Z,986.65
2023-02-07T11:42:45.156Z,986.67
2023-02-07T11:43:45.010Z,986.66
2023-02-07T11:44:45.131Z,986.68
2023-02-07T11:45:45.004Z,986.64
2023-02-07T11:46:45.146Z,986.63
2023-02-07T11:47:44.957Z,986.61
2023-02-07T11:48:45.100Z,986.61
2023-02-07T11:49:44.922Z,986.60
2023-02-07T11:50:45.228Z,986.59
2023-02-07T11:51:44.939Z,986.63
2023-02-07T11:52:45.027Z,986.66
2023-02-07T11:53:44.868Z,986.66
2023-02-07T11:54:44.930Z,986.73
2023-02-07T11:55:44.911Z,986.70
2023-02-07T11:56:44.948Z,986.77
2023-02-07T11:57:45.122Z,986.78
2023-02-07T11:58:44.856Z,986.77
2023-02-07T11:59:44.865Z,986.68
2023-02-07T12:00:44.914Z,986.69
2023-02-07T12:01:44.970Z,986.71
2023-02-07T12:02:44.905Z,986.72
2023-02-07T12:03:44.766Z,986.73
2023-02-07T12:04:44.865Z,986.70
2023-02-07T12:05:44.745Z,986.67
2023-02-07T12:06:45.000Z,986.68
2023-02-07T12:07:44.756Z,986.66
2023-02-07T12:08:44.951Z,986.66
2023-02-07T12:09:44.697Z,986.70
2023-02-07T12:10:44.781Z,986.72
2023-02-07T12:11:44.688Z,986.67
2023-02-07T12:12:44.788Z,986.71
2023-02-07T12:13:44.674Z,986.72
2023-02-07T12:14:44.846Z,986.71
2023-02-07T12:15:44.625Z,986.70
2023-02-07T12:16:44.804Z,986.73
2023-02-07T12:17:44.618Z,986.74
2023-02-07T12:18:44.862Z,986.72
2023-02-07T12:19:44.619Z,986.69
2023-02-07T12:20:44.611Z,986.64
2023-02-07T12:21:44.536Z,986.57
2023-02-07T12:22:53.169Z,986.60
2023-02-07T12:23:44.648Z,986.66
2023-02-07T12:24:44.527Z,986.64
2023-02-07T12:39:52.045Z,986.47
2023-02-07T12:40:53.256Z,986.38
2023-02-07T12:41:53.534Z,986.45
2023-02-07T12:42:52.983Z,986.48